createdAt,value
2022-08-31T00:01:31.153Z,4.95
2022-08-31T00:04:02.111Z,4.35
2022-08-31T00:06:30.418Z,4.30
2022-08-31T00:08:57.640Z,4.70
2022-08-31T00:11:30.123Z,5.07
2022-08-31T00:13:59.173Z,4.75
2022-08-31T00:16:27.754Z,4.63
2022-08-31T00:18:55.066Z,4.88
2022-08-31T00:21:24.237Z,4.55
2022-08-31T00:23:51.387Z,4.18
2022-08-31T00:26:19.011Z,4.38
2022-08-31T00:28:46.510Z,4.13
2022-08-31T00:31:13.952Z,4.70
2022-08-31T00:33:41.897Z,5.00
2022-08-31T00:36:11.084Z,3.97
2022-08-31T00:38:38.752Z,4.85
2022-08-31T00:41:06.185Z,4.93
2022-08-31T00:43:39.534Z,4.55
2022-08-31T00:46:07.335Z,4.88
2022-08-31T00:48:35.377Z,4.32
2022-08-31T00:51:02.867Z,4.30
2022-08-31T00:53:30.111Z,4.63
2022-08-31T00:55:57.352Z,5.10
2022-08-31T00:58:24.606Z,5.25
2022-08-31T01:00:51.976Z,4.70
2022-08-31T01:03:21.549Z,4.80
2022-08-31T01:05:48.674Z,4.70
2022-08-31T01:08:15.937Z,5.15
2022-08-31T01:10:44.290Z,4.88
2022-08-31T01:13:13.027Z,5.07
2022-08-31T01:15:42.195Z,5.32
2022-08-31T01:18:09.462Z,5.18
2022-08-31T01:20:48.579Z,4.65
2022-08-31T01:23:22.606Z,4.95
2022-08-31T01:25:50.499Z,5.32
2022-08-31T01:28:17.695Z,5.60
2022-08-31T01:30:45.442Z,5.63
2022-08-31T01:33:13.331Z,5.25
2022-08-31T01:35:44.118Z,5.55
2022-08-31T01:38:13.201Z,5.53
2022-08-31T01:40:46.118Z,5.00
2022-08-31T01:43:13.318Z,5.45
2022-08-31T01:45:40.486Z,5.25
2022-08-31T01:48:07.605Z,5.07
2022-08-31T01:50:35.654Z,5.65
2022-08-31T01:53:02.811Z,4.60
2022-08-31T01:55:30.220Z,5.40
2022-08-31T01:57:58.063Z,4.90
2022-08-31T02:00:25.263Z,5.63
2022-08-31T02:02:52.455Z,5.05
2022-08-31T02:05:19.661Z,5.13
2022-08-31T02:07:46.778Z,5.80
2022-08-31T02:10:14.283Z,6.13
2022-08-31T02:12:41.462Z,5.70
2022-08-31T02:15:09.061Z,5.40
2022-08-31T02:17:36.457Z,5.53
2022-08-31T02:20:05.576Z,5.05
2022-08-31T02:22:32.807Z,4.93
2022-08-31T02:25:00.015Z,4.90
2022-08-31T02:27:27.285Z,4.88
2022-08-31T02:29:55.073Z,5.05
2022-08-31T02:32:22.336Z,5.07
2022-08-31T02:34:49.564Z,5.18
2022-08-31T02:37:17.137Z,4.70
2022-08-31T02:39:44.766Z,5.00
2022-08-31T02:42:11.907Z,5.03
2022-08-31T02:44:39.117Z,5.10
2022-08-31T02:47:06.254Z,4.80
2022-08-31T02:49:33.934Z,4.90
2022-08-31T02:52:01.107Z,4.47
2022-08-31T02:54:28.339Z,4.47
2022-08-31T02:56:55.465Z,5.00
2022-08-31T02:59:22.630Z,4.38
2022-08-31T03:01:53.073Z,4.20
2022-08-31T03:04:20.253Z,4.30
2022-08-31T03:06:48.083Z,3.90
2022-08-31T03:09:15.986Z,4.25
2022-08-31T03:11:43.405Z,4.40
2022-08-31T03:14:10.579Z,3.95
2022-08-31T03:16:39.563Z,4.03
2022-08-31T03:19:07.246Z,4.00
2022-08-31T03:21:34.433Z,4.22
2022-08-31T03:24:01.639Z,4.00
2022-08-31T03:26:28.839Z,3.83
2022-08-31T03:28:56.099Z,4.10
2022-08-31T03:34:05.409Z,4.63
2022-08-31T03:36:32.542Z,4.90
2022-08-31T03:38:59.673Z,4.65
2022-08-31T03:41:27.403Z,5.05
2022-08-31T03:43:54.613Z,4.72
2022-08-31T03:46:21.998Z,4.30
2022-08-31T03:48:49.854Z,4.93
2022-08-31T03:51:18.053Z,4.45
2022-08-31T03:53:45.165Z,4.43
2022-08-31T03:56:12.345Z,4.60
2022-08-31T03:58:39.500Z,5.25
2022-08-31T04:01:06.728Z,5.00
2022-08-31T04:03:33.911Z,4.55
2022-08-31T04:06:01.100Z,4.65
2022-08-31T04:08:28.290Z,5.03
2022-08-31T04:10:55.433Z,4.25
2022-08-31T04:13:28.037Z,5.53
2022-08-31T04:16:00.823Z,5.40
2022-08-31T04:18:28.134Z,4.97
2022-08-31T04:20:55.391Z,4.38
2022-08-31T04:23:24.322Z,5.00
2022-08-31T04:25:51.622Z,4.45
2022-08-31T04:28:18.752Z,5.00
2022-08-31T04:30:46.671Z,5.28
2022-08-31T04:33:13.893Z,5.30
2022-08-31T04:35:42.042Z,5.60
2022-08-31T04:38:10.219Z,5.13
2022-08-31T04:40:39.156Z,5.38
2022-08-31T04:43:07.445Z,5.30
2022-08-31T04:45:34.716Z,5.80
2022-08-31T04:48:01.933Z,5.32
2022-08-31T04:50:29.116Z,5.28
2022-08-31T04:53:01.107Z,5.78
2022-08-31T04:55:31.109Z,5.70
2022-08-31T04:57:58.285Z,5.30
2022-08-31T05:00:25.445Z,5.20
2022-08-31T05:02:54.116Z,5.82
2022-08-31T05:05:21.414Z,5.43
2022-08-31T05:07:48.625Z,5.97
2022-08-31T05:10:30.707Z,6.13
2022-08-31T05:13:05.545Z,5.82
2022-08-31T05:15:45.864Z,6.15
2022-08-31T05:18:13.667Z,5.97
2022-08-31T05:20:41.218Z,6.20
2022-08-31T05:23:09.307Z,6.35
2022-08-31T05:25:40.314Z,6.50
2022-08-31T05:28:08.087Z,6.43
2022-08-31T05:30:35.235Z,6.45
2022-08-31T05:33:02.370Z,6.35
2022-08-31T05:35:31.259Z,6.88
2022-08-31T05:37:58.414Z,6.47
2022-08-31T05:40:25.621Z,6.63
2022-08-31T05:42:52.807Z,6.25
2022-08-31T05:45:19.921Z,5.53
2022-08-31T05:47:47.074Z,6.70
2022-08-31T05:50:14.254Z,6.25
2022-08-31T05:52:42.534Z,6.10
2022-08-31T05:55:09.738Z,5.93
2022-08-31T05:57:38.218Z,6.18
2022-08-31T06:00:05.663Z,6.22
2022-08-31T06:02:33.954Z,6.38
2022-08-31T06:05:01.168Z,7.15
2022-08-31T06:07:28.540Z,6.50
2022-08-31T06:09:55.686Z,6.53
2022-08-31T06:12:25.767Z,6.60
2022-08-31T06:14:53.627Z,6.50
2022-08-31T06:17:20.847Z,7.20
2022-08-31T06:19:48.169Z,6.88
2022-08-31T06:22:15.408Z,6.13
2022-08-31T06:24:43.096Z,6.18
2022-08-31T06:27:10.296Z,6.00
2022-08-31T06:29:37.429Z,6.88
2022-08-31T06:32:08.120Z,5.97
2022-08-31T06:34:35.882Z,6.20
2022-08-31T06:37:03.589Z,5.65
2022-08-31T06:39:31.354Z,5.72
2022-08-31T06:41:58.524Z,5.60
2022-08-31T06:44:26.210Z,5.95
2022-08-31T06:46:53.922Z,5.63
2022-08-31T06:49:21.327Z,5.30
2022-08-31T06:51:48.445Z,6.40
2022-08-31T06:54:29.058Z,5.65
2022-08-31T06:56:59.729Z,5.72
2022-08-31T06:59:29.061Z,6.10
2022-08-31T07:01:56.810Z,6.38
2022-08-31T07:04:23.974Z,6.00
2022-08-31T07:06:51.098Z,5.72
2022-08-31T07:09:18.337Z,5.97
2022-08-31T07:11:47.252Z,6.38
2022-08-31T07:14:15.889Z,5.75
2022-08-31T07:16:43.499Z,6.20
2022-08-31T07:19:11.334Z,6.10
2022-08-31T07:21:41.518Z,6.70
2022-08-31T07:24:08.796Z,6.38
2022-08-31T07:26:37.424Z,6.47
2022-08-31T07:29:06.108Z,6.30
2022-08-31T07:31:46.524Z,6.70
2022-08-31T07:34:36.067Z,6.45
2022-08-31T07:37:22.877Z,6.50
2022-08-31T07:40:08.945Z,6.25
2022-08-31T07:42:40.703Z,6.20
2022-08-31T07:45:12.093Z,6.13
2022-08-31T07:47:45.157Z,6.70
2022-08-31T07:50:13.198Z,6.13
2022-08-31T07:52:47.053Z,6.57
2022-08-31T07:55:15.554Z,6.82
2022-08-31T07:57:44.167Z,6.00
2022-08-31T08:00:18.054Z,6.53
2022-08-31T08:02:53.195Z,6.07
2022-08-31T08:05:26.905Z,6.22
2022-08-31T08:07:58.403Z,6.15
2022-08-31T08:10:29.934Z,6.40
2022-08-31T08:13:05.048Z,6.57
2022-08-31T08:15:35.744Z,6.50
2022-08-31T08:18:03.392Z,6.05
2022-08-31T08:20:38.025Z,6.30
2022-08-31T08:23:27.846Z,6.40
2022-08-31T08:25:56.003Z,7.05
2022-08-31T08:28:42.354Z,6.55
2022-08-31T08:31:17.856Z,6.28
2022-08-31T08:33:45.683Z,6.50
2022-08-31T08:36:17.005Z,6.85
2022-08-31T08:38:46.254Z,6.88
2022-08-31T08:41:19.203Z,6.80
2022-08-31T08:43:52.728Z,6.82
2022-08-31T08:46:34.291Z,6.72
2022-08-31T08:49:08.689Z,6.15
2022-08-31T08:51:38.850Z,7.10
2022-08-31T08:54:10.214Z,7.00
2022-08-31T08:56:42.037Z,7.13
2022-08-31T08:59:15.972Z,6.70
2022-08-31T09:01:47.199Z,7.20
2022-08-31T09:04:40.393Z,7.57
2022-08-31T09:09:50.831Z,7.22
2022-08-31T09:12:25.789Z,7.00
2022-08-31T09:15:15.394Z,6.82
2022-08-31T09:17:42.700Z,7.38
2022-08-31T09:20:13.130Z,7.28
2022-08-31T09:22:50.962Z,6.80
2022-08-31T09:25:20.190Z,7.38
2022-08-31T09:27:57.459Z,6.80
2022-08-31T09:30:43.640Z,7.65
2022-08-31T09:33:37.085Z,7.28
2022-08-31T09:36:17.958Z,7.63
2022-08-31T09:38:46.878Z,7.30
2022-08-31T09:41:22.494Z,8.02
2022-08-31T09:43:50.642Z,7.68
2022-08-31T09:46:28.585Z,6.28
2022-08-31T09:48:58.230Z,7.13
2022-08-31T09:51:30.249Z,7.03
2022-08-31T09:54:23.179Z,7.60
2022-08-31T09:56:55.249Z,6.80
2022-08-31T09:59:38.506Z,7.15
2022-08-31T10:02:26.926Z,6.72
2022-08-31T10:04:55.493Z,6.28
2022-08-31T10:07:28.667Z,6.95
2022-08-31T10:09:59.349Z,6.95
2022-08-31T10:12:26.631Z,6.72
2022-08-31T10:14:55.842Z,7.00
2022-08-31T10:17:32.205Z,6.75
2022-08-31T10:20:07.533Z,6.60
2022-08-31T10:22:42.482Z,6.63
2022-08-31T10:25:24.666Z,6.55
2022-08-31T10:28:06.290Z,6.40
2022-08-31T10:30:45.382Z,6.53
2022-08-31T10:33:15.436Z,7.00
2022-08-31T10:35:54.674Z,6.75
2022-08-31T10:38:24.106Z,8.32
2022-08-31T10:40:54.772Z,9.35
2022-08-31T10:43:29.177Z,7.22
2022-08-31T10:45:59.759Z,10.30
2022-08-31T10:48:27.816Z,7.82
2022-08-31T10:51:09.176Z,6.78
2022-08-31T10:53:44.078Z,6.40
2022-08-31T10:56:14.414Z,7.22
2022-08-31T10:59:04.752Z,6.25
2022-08-31T11:01:44.232Z,6.90
2022-08-31T11:04:18.558Z,6.18
2022-08-31T11:06:53.975Z,6.68
2022-08-31T11:09:26.630Z,6.45
2022-08-31T11:14:34.321Z,6.80
2022-08-31T11:17:19.118Z,6.15
2022-08-31T11:19:59.973Z,6.40
2022-08-31T11:22:40.946Z,6.43
2022-08-31T11:25:15.098Z,6.30
2022-08-31T11:27:44.550Z,6.65
2022-08-31T11:30:26.716Z,13.98
2022-08-31T11:33:03.146Z,7.10
2022-08-31T11:35:49.341Z,6.72
2022-08-31T11:38:36.160Z,6.70
2022-08-31T11:41:03.973Z,6.97
2022-08-31T11:43:34.212Z,6.28
2022-08-31T11:46:37.810Z,6.90
2022-08-31T11:49:10.829Z,6.35
2022-08-31T11:51:44.949Z,6.60
2022-08-31T11:54:13.575Z,6.60
2022-08-31T11:56:47.301Z,6.60
2022-08-31T11:59:26.717Z,6.60
2022-08-31T12:01:56.583Z,6.68
2022-08-31T12:04:46.565Z,7.00
2022-08-31T12:07:33.934Z,6.47
2022-08-31T12:10:22.062Z,6.13
2022-08-31T12:12:58.585Z,5.70
2022-08-31T12:15:34.264Z,6.55
2022-08-31T12:18:05.622Z,6.20
2022-08-31T12:21:10.422Z,6.00
2022-08-31T12:23:43.483Z,6.35
2022-08-31T12:26:16.965Z,6.22
2022-08-31T12:28:44.139Z,6.75
2022-08-31T12:31:14.503Z,5.80
2022-08-31T12:33:50.748Z,5.72
2022-08-31T12:36:19.839Z,5.68
2022-08-31T12:38:47.013Z,6.40
2022-08-31T12:41:14.645Z,6.38
2022-08-31T12:43:48.937Z,6.15
2022-08-31T12:46:22.096Z,6.10
2022-08-31T12:49:08.010Z,5.80
2022-08-31T12:51:44.500Z,6.45
2022-08-31T12:54:26.878Z,6.10
2022-08-31T12:56:54.007Z,6.05
2022-08-31T12:59:57.289Z,6.07
2022-08-31T13:02:24.634Z,5.53
2022-08-31T13:04:52.227Z,5.50
2022-08-31T13:07:19.906Z,5.15
2022-08-31T13:09:47.074Z,5.18
2022-08-31T13:12:22.851Z,5.15
2022-08-31T13:14:50.105Z,5.38
2022-08-31T13:17:18.661Z,4.75
2022-08-31T13:19:53.167Z,4.47
2022-08-31T13:22:30.699Z,4.68
2022-08-31T13:25:10.789Z,3.60
2022-08-31T13:27:39.341Z,4.03
2022-08-31T13:30:18.851Z,3.50
2022-08-31T13:32:49.679Z,3.72
2022-08-31T13:35:19.184Z,4.00
2022-08-31T13:37:52.483Z,4.05
2022-08-31T13:40:23.714Z,4.30
2022-08-31T13:42:56.889Z,3.75
2022-08-31T13:45:27.428Z,3.92
2022-08-31T13:47:57.565Z,3.85
2022-08-31T13:50:28.562Z,3.78
2022-08-31T13:53:23.025Z,3.45
2022-08-31T13:55:46.407Z,3.70
2022-08-31T13:58:30.329Z,4.03
2022-08-31T14:01:24.118Z,3.80
2022-08-31T14:03:59.601Z,3.78
2022-08-31T14:06:28.871Z,3.97
2022-08-31T14:09:03.152Z,3.45
2022-08-31T14:11:30.825Z,4.10
2022-08-31T14:14:05.105Z,3.45
2022-08-31T14:16:35.651Z,3.75
2022-08-31T14:19:03.018Z,3.40
2022-08-31T14:21:31.455Z,3.50
2022-08-31T14:24:03.001Z,3.40
2022-08-31T14:26:32.110Z,3.30
2022-08-31T14:29:02.242Z,3.28
2022-08-31T14:31:33.782Z,3.22
2022-08-31T14:34:10.136Z,3.17
2022-08-31T14:36:50.265Z,3.45
2022-08-31T14:39:17.382Z,3.30
2022-08-31T14:41:45.507Z,3.00
2022-08-31T14:44:13.498Z,2.97
2022-08-31T14:46:42.399Z,3.17
2022-08-31T14:49:10.739Z,2.97
2022-08-31T14:51:39.046Z,3.20
2022-08-31T14:54:07.474Z,2.80
2022-08-31T14:56:37.070Z,3.17
2022-08-31T14:59:05.967Z,2.80
2022-08-31T15:01:35.635Z,2.92
2022-08-31T15:04:04.819Z,2.35
2022-08-31T15:06:33.029Z,2.40
2022-08-31T15:09:05.065Z,2.70
2022-08-31T15:11:35.290Z,2.72
2022-08-31T15:14:03.033Z,2.53
2022-08-31T15:16:30.810Z,2.60
2022-08-31T15:18:58.985Z,2.75
2022-08-31T15:21:26.584Z,3.10
2022-08-31T15:23:53.711Z,2.63
2022-08-31T15:26:21.594Z,2.85
2022-08-31T15:28:52.439Z,3.05
2022-08-31T15:31:24.406Z,2.80
2022-08-31T15:33:55.163Z,2.78
2022-08-31T15:36:25.014Z,2.90
2022-08-31T15:38:57.128Z,2.70
2022-08-31T15:41:24.901Z,2.40
2022-08-31T15:43:52.079Z,2.80
2022-08-31T15:46:40.640Z,2.60
2022-08-31T15:49:09.759Z,2.58
2022-08-31T15:51:49.710Z,2.50
2022-08-31T15:54:22.719Z,2.60
2022-08-31T15:56:58.126Z,2.53
2022-08-31T15:59:25.239Z,2.70
2022-08-31T16:01:52.924Z,2.80
2022-08-31T16:04:23.611Z,2.65
2022-08-31T16:06:51.921Z,2.83
2022-08-31T16:09:21.140Z,2.70
2022-08-31T16:11:49.584Z,3.10
2022-08-31T16:14:17.350Z,2.65
2022-08-31T16:16:46.441Z,2.50
2022-08-31T16:19:33.298Z,2.80
2022-08-31T16:22:02.875Z,2.83
2022-08-31T16:24:36.983Z,2.88
2022-08-31T16:27:07.920Z,2.80
2022-08-31T16:29:36.423Z,2.35
2022-08-31T16:32:04.213Z,2.50
2022-08-31T16:34:31.544Z,2.75
2022-08-31T16:36:59.844Z,3.05
2022-08-31T16:39:28.292Z,2.55
2022-08-31T16:41:55.778Z,2.97
2022-08-31T16:44:22.879Z,3.08
2022-08-31T16:46:52.576Z,2.83
2022-08-31T16:49:35.946Z,2.95
2022-08-31T16:52:05.888Z,2.70
2022-08-31T16:54:34.004Z,3.20
2022-08-31T16:57:01.603Z,3.45
2022-08-31T16:59:29.547Z,3.10
2022-08-31T17:01:57.117Z,3.13
2022-08-31T17:04:50.390Z,3.42
2022-08-31T17:07:13.862Z,3.33
2022-08-31T17:09:41.442Z,3.20
2022-08-31T17:12:12.008Z,3.65
2022-08-31T17:14:45.576Z,3.35
2022-08-31T17:17:23.449Z,3.78
2022-08-31T17:19:52.071Z,3.40
2022-08-31T17:22:25.647Z,3.55
2022-08-31T17:24:59.290Z,3.65
2022-08-31T17:27:27.404Z,3.90
2022-08-31T17:30:00.760Z,3.67
2022-08-31T17:32:28.793Z,3.25
2022-08-31T17:34:56.144Z,3.85
2022-08-31T17:37:32.618Z,3.40
2022-08-31T17:40:00.623Z,3.60
2022-08-31T17:42:28.197Z,3.63
2022-08-31T17:44:56.376Z,3.60
2022-08-31T17:47:24.497Z,3.95
2022-08-31T17:49:52.439Z,3.88
2022-08-31T17:52:21.447Z,3.50
2022-08-31T17:54:50.722Z,3.78
2022-08-31T17:57:19.250Z,3.80
2022-08-31T17:59:51.006Z,3.78
2022-08-31T18:02:21.062Z,4.03
2022-08-31T18:04:48.852Z,4.00
2022-08-31T18:07:16.239Z,4.28
2022-08-31T18:09:45.333Z,3.80
2022-08-31T18:12:12.581Z,3.90
2022-08-31T18:14:39.989Z,4.18
2022-08-31T18:17:09.490Z,4.43
2022-08-31T18:19:37.042Z,4.05
2022-08-31T18:22:04.306Z,4.38
2022-08-31T18:24:36.299Z,4.38
2022-08-31T18:27:06.967Z,4.00
2022-08-31T18:29:34.651Z,4.13
2022-08-31T18:32:05.513Z,4.00
2022-08-31T18:34:33.949Z,3.95
2022-08-31T18:37:01.286Z,4.65
2022-08-31T18:39:51.435Z,4.20
2022-08-31T18:42:38.748Z,4.35
2022-08-31T18:45:15.368Z,4.20
2022-08-31T18:47:42.590Z,4.47
2022-08-31T18:50:10.727Z,4.43
2022-08-31T18:52:40.149Z,4.43
2022-08-31T18:55:07.698Z,4.18
2022-08-31T18:57:36.411Z,4.40
2022-08-31T19:00:16.989Z,4.63
2022-08-31T19:02:44.788Z,4.60
2022-08-31T19:05:12.970Z,4.90
2022-08-31T19:07:41.207Z,4.57
2022-08-31T19:10:12.936Z,4.70
2022-08-31T19:12:42.618Z,4.68
2022-08-31T19:15:11.023Z,5.43
2022-08-31T19:17:39.389Z,4.93
2022-08-31T19:20:10.174Z,5.40
2022-08-31T19:22:37.786Z,5.18
2022-08-31T19:25:07.026Z,5.57
2022-08-31T19:27:35.216Z,5.60
2022-08-31T19:30:05.867Z,5.30
2022-08-31T19:32:33.850Z,5.40
2022-08-31T19:35:00.970Z,5.35
2022-08-31T19:37:28.184Z,5.93
2022-08-31T19:39:55.306Z,5.82
2022-08-31T19:42:40.214Z,5.10
2022-08-31T19:45:24.911Z,5.93
2022-08-31T19:47:52.601Z,5.45
2022-08-31T19:50:19.881Z,5.53
2022-08-31T19:52:47.382Z,5.68
2022-08-31T19:55:14.506Z,6.22
2022-08-31T19:57:43.294Z,6.68
2022-08-31T20:00:12.468Z,6.50
2022-08-31T20:02:42.242Z,6.40
2022-08-31T20:05:09.750Z,6.60
2022-08-31T20:07:37.033Z,6.57
2022-08-31T20:10:05.120Z,6.40
2022-08-31T20:12:32.443Z,6.40
2022-08-31T20:14:59.656Z,5.55
2022-08-31T20:17:30.102Z,6.00
2022-08-31T20:19:59.857Z,5.88
2022-08-31T20:22:28.075Z,5.90
2022-08-31T20:25:00.734Z,6.13
2022-08-31T20:27:28.143Z,6.38
2022-08-31T20:29:57.002Z,6.70
2022-08-31T20:32:25.799Z,6.70
2022-08-31T20:34:55.919Z,6.95
2022-08-31T20:37:24.561Z,7.15
2022-08-31T20:39:52.024Z,6.68
2022-08-31T20:42:21.908Z,7.03
2022-08-31T20:44:49.185Z,7.80
2022-08-31T20:47:35.299Z,7.78
2022-08-31T20:50:07.175Z,8.15
2022-08-31T20:52:35.295Z,7.20
2022-08-31T20:55:04.098Z,8.15
2022-08-31T20:57:32.345Z,8.13
2022-08-31T21:00:03.695Z,9.43
2022-08-31T21:02:31.788Z,8.90
2022-08-31T21:05:15.305Z,8.75
2022-08-31T21:07:47.491Z,8.90
2022-08-31T21:10:14.634Z,9.57
2022-08-31T21:12:42.666Z,8.30
2022-08-31T21:15:11.338Z,9.02
2022-08-31T21:17:40.527Z,9.65
2022-08-31T21:20:08.517Z,9.15
2022-08-31T21:22:37.535Z,10.13
2022-08-31T21:25:09.821Z,9.77
2022-08-31T21:27:36.958Z,9.45
2022-08-31T21:30:05.126Z,9.32
2022-08-31T21:32:32.799Z,9.45
2022-08-31T21:35:00.070Z,9.35
2022-08-31T21:37:27.215Z,10.23
2022-08-31T21:39:57.760Z,10.23
2022-08-31T21:42:25.348Z,10.50
2022-08-31T21:44:52.605Z,9.88
2022-08-31T21:47:19.761Z,9.80
2022-08-31T21:49:49.771Z,10.35
2022-08-31T21:52:17.713Z,10.40
2022-08-31T21:54:46.351Z,10.63
2022-08-31T21:57:14.206Z,10.32
2022-08-31T21:59:41.417Z,10.13
2022-08-31T22:02:11.221Z,10.23
2022-08-31T22:04:40.174Z,11.32
2022-08-31T22:07:08.125Z,10.27
2022-08-31T22:09:36.144Z,10.65
2022-08-31T22:12:06.528Z,10.63
2022-08-31T22:14:36.073Z,10.90
2022-08-31T22:17:05.597Z,11.60
2022-08-31T22:19:36.056Z,11.23
2022-08-31T22:22:05.586Z,11.00
2022-08-31T22:24:33.925Z,12.05
2022-08-31T22:27:03.137Z,11.48
2022-08-31T22:29:31.978Z,11.93
2022-08-31T22:32:00.964Z,11.77
2022-08-31T22:34:28.269Z,11.75
2022-08-31T22:36:56.580Z,11.90
2022-08-31T22:39:25.257Z,11.63
2022-08-31T22:41:53.073Z,11.90
2022-08-31T22:44:21.420Z,12.25
2022-08-31T22:46:48.818Z,11.60
2022-08-31T22:49:16.180Z,11.70
2022-08-31T22:51:44.892Z,11.70
2022-08-31T22:54:12.077Z,10.48
2022-08-31T22:56:40.493Z,11.02
2022-08-31T22:59:10.011Z,11.27
2022-08-31T23:01:46.547Z,11.07
2022-08-31T23:04:15.844Z,11.52
2022-08-31T23:06:43.698Z,11.35
2022-08-31T23:09:11.466Z,12.20
2022-08-31T23:11:39.339Z,11.60
2022-08-31T23:14:08.592Z,11.45
2022-08-31T23:16:37.392Z,11.65
2022-08-31T23:19:12.226Z,11.45
2022-08-31T23:21:45.003Z,11.48
2022-08-31T23:26:40.768Z,11.57
2022-08-31T23:29:12.136Z,11.35
2022-08-31T23:31:40.079Z,11.52
2022-08-31T23:34:12.777Z,12.20
2022-08-31T23:39:07.914Z,12.23
2022-08-31T23:41:37.723Z,12.45
2022-08-31T23:44:08.614Z,12.95
2022-08-31T23:46:36.887Z,11.80
2022-08-31T23:49:05.647Z,12.32
2022-08-31T23:51:33.345Z,12.50
2022-08-31T23:54:01.176Z,11.90
2022-08-31T23:56:32.636Z,12.95
2022-08-31T23:59:03.413Z,13.85
